createdAt,value
2022-10-07T00:01:05.880Z,16.30
2022-10-07T00:03:35.010Z,16.40
2022-10-07T00:06:08.208Z,16.40
2022-10-07T00:08:37.202Z,16.10
2022-10-07T00:11:07.386Z,16.00
2022-10-07T00:13:38.789Z,16.00
2022-10-07T00:16:09.120Z,16.10
2022-10-07T00:18:37.934Z,16.10
2022-10-07T00:21:07.989Z,16.10
2022-10-07T00:23:36.688Z,16.20
2022-10-07T00:26:06.438Z,16.20
2022-10-07T00:28:36.276Z,16.10
2022-10-07T00:31:07.230Z,16.00
2022-10-07T00:33:37.703Z,16.10
2022-10-07T00:36:08.701Z,16.00
2022-10-07T00:38:36.779Z,16.00
2022-10-07T00:41:05.023Z,16.00
2022-10-07T00:43:33.969Z,15.90
2022-10-07T00:46:09.553Z,15.90
2022-10-07T00:48:39.509Z,15.90
2022-10-07T00:51:09.333Z,15.80
2022-10-07T00:53:41.071Z,15.90
2022-10-07T00:56:09.829Z,15.90
2022-10-07T00:58:40.623Z,16.00
2022-10-07T01:01:10.068Z,16.00
2022-10-07T01:03:38.137Z,16.20
2022-10-07T01:06:06.904Z,16.10
2022-10-07T01:08:35.399Z,16.10
2022-10-07T01:11:14.766Z,16.10
2022-10-07T01:13:53.828Z,16.30
2022-10-07T01:16:30.602Z,16.30
2022-10-07T01:19:06.531Z,16.30
2022-10-07T01:21:41.885Z,16.30
2022-10-07T01:24:25.674Z,16.20
2022-10-07T01:27:01.197Z,16.20
2022-10-07T01:29:34.073Z,16.30
2022-10-07T01:32:06.773Z,16.50
2022-10-07T01:34:36.442Z,16.50
2022-10-07T01:37:07.784Z,16.50
2022-10-07T01:39:41.838Z,16.60
2022-10-07T01:42:11.538Z,16.60
2022-10-07T01:44:40.947Z,16.40
2022-10-07T01:47:08.854Z,16.40
2022-10-07T01:49:37.011Z,16.50
2022-10-07T01:52:31.858Z,16.60
2022-10-07T01:55:19.737Z,16.50
2022-10-07T01:57:57.175Z,16.40
2022-10-07T02:00:25.175Z,16.20
2022-10-07T02:03:11.374Z,16.20
2022-10-07T02:05:47.140Z,16.10
2022-10-07T02:08:25.907Z,16.00
2022-10-07T02:11:05.417Z,15.90
2022-10-07T02:13:39.172Z,15.80
2022-10-07T02:16:14.002Z,15.70
2022-10-07T02:18:44.212Z,15.70
2022-10-07T02:21:13.514Z,15.60
2022-10-07T02:23:43.029Z,15.70
2022-10-07T02:26:13.253Z,15.60
2022-10-07T02:28:44.305Z,15.60
2022-10-07T02:31:18.029Z,15.50
2022-10-07T02:33:48.113Z,15.60
2022-10-07T02:36:22.291Z,15.40
2022-10-07T02:38:50.430Z,15.40
2022-10-07T02:41:32.177Z,15.40
2022-10-07T02:44:11.388Z,15.40
2022-10-07T02:46:46.163Z,15.60
2022-10-07T02:49:17.808Z,15.60
2022-10-07T02:51:49.802Z,15.80
2022-10-07T02:54:23.289Z,15.90
2022-10-07T02:56:52.079Z,16.00
2022-10-07T02:59:22.919Z,15.90
2022-10-07T03:01:54.920Z,15.80
2022-10-07T03:04:23.732Z,15.80
2022-10-07T03:06:52.417Z,15.80
2022-10-07T03:09:20.557Z,15.70
2022-10-07T03:11:49.317Z,15.60
2022-10-07T03:14:17.207Z,15.70
2022-10-07T03:16:46.422Z,15.80
2022-10-07T03:19:14.311Z,15.80
2022-10-07T03:21:42.199Z,16.00
2022-10-07T03:24:11.161Z,16.10
2022-10-07T03:26:39.060Z,16.10
2022-10-07T03:29:08.302Z,16.10
2022-10-07T03:31:36.225Z,16.10
2022-10-07T03:34:05.607Z,15.90
2022-10-07T03:36:33.495Z,15.40
2022-10-07T03:39:01.473Z,15.20
2022-10-07T03:41:29.386Z,15.00
2022-10-07T03:43:59.224Z,15.00
2022-10-07T03:46:27.301Z,14.90
2022-10-07T03:48:55.310Z,14.90
2022-10-07T03:51:24.795Z,14.90
2022-10-07T03:53:54.458Z,14.80
2022-10-07T03:56:22.317Z,14.70
2022-10-07T03:58:50.443Z,14.70
2022-10-07T04:01:18.408Z,14.70
2022-10-07T04:03:46.427Z,14.70
2022-10-07T04:06:14.570Z,14.70
2022-10-07T04:08:44.899Z,14.70
2022-10-07T04:11:12.921Z,14.60
2022-10-07T04:13:41.091Z,14.50
2022-10-07T04:16:10.532Z,14.40
2022-10-07T04:18:38.756Z,14.30
2022-10-07T04:21:06.822Z,14.20
2022-10-07T04:23:34.939Z,14.20
2022-10-07T04:26:09.170Z,14.20
2022-10-07T04:28:37.905Z,14.20
2022-10-07T04:31:06.813Z,14.20
2022-10-07T04:33:34.906Z,14.20
2022-10-07T04:36:05.751Z,14.20
2022-10-07T04:38:33.761Z,14.20
2022-10-07T04:41:06.752Z,14.20
2022-10-07T04:43:35.049Z,14.30
2022-10-07T04:46:04.846Z,14.30
2022-10-07T04:48:33.518Z,14.30
2022-10-07T04:51:05.625Z,14.10
2022-10-07T04:53:33.728Z,14.00
2022-10-07T04:56:01.807Z,13.90
2022-10-07T04:58:31.736Z,14.00
2022-10-07T05:01:01.850Z,14.00
2022-10-07T05:03:30.940Z,14.00
2022-10-07T05:06:05.812Z,13.70
2022-10-07T05:08:34.287Z,13.30
2022-10-07T05:11:03.296Z,13.00
2022-10-07T05:13:33.669Z,12.90
2022-10-07T05:16:03.462Z,13.00
2022-10-07T05:18:32.692Z,13.00
2022-10-07T05:21:00.547Z,12.80
2022-10-07T05:23:29.040Z,12.80
2022-10-07T05:26:01.820Z,12.80
2022-10-07T05:28:29.958Z,12.70
2022-10-07T05:31:07.300Z,12.60
2022-10-07T05:33:35.850Z,12.80
2022-10-07T05:36:03.978Z,12.90
2022-10-07T05:38:32.012Z,13.20
2022-10-07T05:41:01.222Z,12.60
2022-10-07T05:43:30.408Z,13.00
2022-10-07T05:46:01.398Z,13.30
2022-10-07T05:48:36.612Z,13.40
2022-10-07T05:51:07.204Z,13.50
2022-10-07T05:53:35.117Z,13.70
2022-10-07T05:56:06.481Z,13.80
2022-10-07T05:58:35.776Z,13.80
2022-10-07T06:01:11.419Z,13.70
2022-10-07T06:03:43.259Z,13.70
2022-10-07T06:06:11.598Z,13.80
2022-10-07T06:08:39.514Z,13.80
2022-10-07T06:11:26.091Z,13.70
2022-10-07T06:13:55.743Z,13.70
2022-10-07T06:16:24.831Z,13.70
2022-10-07T06:18:54.917Z,13.70
2022-10-07T06:21:26.545Z,13.70
2022-10-07T06:23:55.122Z,13.60
2022-10-07T06:26:23.477Z,13.70
2022-10-07T06:28:51.680Z,13.80
2022-10-07T06:31:22.485Z,13.70
2022-10-07T06:33:51.055Z,13.80
2022-10-07T06:36:20.311Z,14.10
2022-10-07T06:38:49.832Z,14.30
2022-10-07T06:41:18.379Z,14.30
2022-10-07T06:43:46.235Z,14.10
2022-10-07T06:46:17.258Z,14.10
2022-10-07T06:48:46.041Z,14.20
2022-10-07T06:51:15.974Z,14.20
2022-10-07T06:53:45.592Z,14.30
2022-10-07T06:56:15.216Z,14.30
2022-10-07T06:58:43.575Z,14.60
2022-10-07T07:01:12.262Z,14.70
2022-10-07T07:03:40.928Z,14.80
2022-10-07T07:06:10.929Z,14.90
2022-10-07T07:08:41.062Z,15.00
2022-10-07T07:11:26.055Z,15.10
2022-10-07T07:13:54.649Z,15.20
2022-10-07T07:16:24.090Z,15.30
2022-10-07T07:18:53.615Z,15.30
2022-10-07T07:21:22.221Z,15.30
2022-10-07T07:23:51.114Z,15.40
2022-10-07T07:26:21.172Z,15.60
2022-10-07T07:28:52.833Z,15.50
2022-10-07T07:31:20.847Z,15.70
2022-10-07T07:33:52.487Z,15.60
2022-10-07T07:36:22.567Z,15.60
2022-10-07T07:38:53.124Z,15.60
2022-10-07T07:41:24.633Z,15.60
2022-10-07T07:43:54.252Z,15.60
2022-10-07T07:46:24.717Z,15.60
2022-10-07T07:48:54.534Z,15.70
2022-10-07T07:51:23.248Z,15.70
2022-10-07T07:53:52.105Z,15.80
2022-10-07T07:56:24.501Z,15.70
2022-10-07T07:58:52.371Z,15.60
2022-10-07T08:01:20.390Z,15.80
2022-10-07T08:03:49.486Z,16.00
2022-10-07T08:06:20.426Z,16.00
2022-10-07T08:08:48.536Z,16.10
2022-10-07T08:11:18.341Z,16.00
2022-10-07T08:13:48.350Z,16.20
2022-10-07T08:16:17.962Z,16.40
2022-10-07T08:18:47.884Z,16.40
2022-10-07T08:21:18.508Z,16.40
2022-10-07T08:23:47.558Z,16.50
2022-10-07T08:26:15.784Z,16.50
2022-10-07T08:28:44.962Z,16.60
2022-10-07T08:31:17.102Z,16.70
2022-10-07T08:33:46.582Z,16.70
2022-10-07T08:36:16.211Z,16.90
2022-10-07T08:38:46.840Z,16.90
2022-10-07T08:41:31.895Z,17.00
2022-10-07T08:44:08.097Z,17.10
2022-10-07T08:46:39.071Z,17.00
2022-10-07T08:49:13.266Z,16.90
2022-10-07T08:51:45.875Z,16.80
2022-10-07T08:54:15.673Z,16.80
2022-10-07T08:56:44.361Z,16.80
2022-10-07T08:59:20.510Z,16.80
2022-10-07T09:02:05.823Z,17.00
2022-10-07T09:04:44.014Z,17.10
2022-10-07T09:07:15.353Z,17.10
2022-10-07T09:09:47.590Z,17.20
2022-10-07T09:12:22.856Z,17.20
2022-10-07T09:14:55.626Z,17.30
2022-10-07T09:17:34.894Z,17.30
2022-10-07T09:20:07.816Z,17.40
2022-10-07T09:22:38.465Z,17.40
2022-10-07T09:25:21.727Z,17.30
2022-10-07T09:27:51.599Z,17.30
2022-10-07T09:30:20.335Z,17.30
2022-10-07T09:32:51.256Z,17.30
2022-10-07T09:35:21.943Z,17.30
2022-10-07T09:37:57.894Z,17.30
2022-10-07T09:40:58.483Z,17.20
2022-10-07T09:43:27.689Z,17.20
2022-10-07T09:45:57.136Z,17.20
2022-10-07T09:48:30.292Z,17.30
2022-10-07T09:51:14.372Z,17.20
2022-10-07T09:53:57.547Z,17.20
2022-10-07T09:56:38.751Z,17.30
2022-10-07T09:59:21.129Z,17.40
2022-10-07T10:01:56.611Z,17.40
2022-10-07T10:04:32.369Z,17.50
2022-10-07T10:07:04.911Z,17.60
2022-10-07T10:09:34.938Z,17.70
2022-10-07T10:12:08.140Z,17.80
2022-10-07T10:14:46.926Z,17.90
2022-10-07T10:17:34.553Z,18.00
2022-10-07T10:20:29.647Z,18.00
2022-10-07T10:22:57.905Z,18.00
2022-10-07T10:25:53.859Z,18.10
2022-10-07T10:28:35.790Z,18.20
2022-10-07T10:31:10.741Z,18.20
2022-10-07T10:33:46.553Z,18.30
2022-10-07T10:36:20.873Z,18.30
2022-10-07T10:39:01.418Z,18.20
2022-10-07T10:41:36.527Z,18.10
2022-10-07T10:44:32.187Z,18.10
2022-10-07T10:47:12.862Z,18.00
2022-10-07T10:49:53.066Z,18.00
2022-10-07T10:52:35.902Z,17.90
2022-10-07T10:55:26.050Z,18.00
2022-10-07T10:58:05.879Z,18.00
2022-10-07T11:00:41.967Z,18.10
2022-10-07T11:03:47.104Z,18.10
2022-10-07T11:06:18.004Z,18.10
2022-10-07T11:08:49.194Z,18.20
2022-10-07T11:11:19.753Z,18.20
2022-10-07T11:13:54.465Z,18.20
2022-10-07T11:16:27.089Z,18.30
2022-10-07T11:18:58.955Z,18.30
2022-10-07T11:21:32.760Z,18.30
2022-10-07T11:24:10.269Z,18.30
2022-10-07T11:26:42.695Z,18.30
2022-10-07T11:29:19.516Z,18.50
2022-10-07T11:31:55.693Z,18.50
2022-10-07T11:34:30.935Z,18.60
2022-10-07T11:37:03.139Z,18.70
2022-10-07T11:39:32.488Z,18.70
2022-10-07T11:42:07.761Z,18.80
2022-10-07T11:44:43.799Z,18.80
2022-10-07T11:47:16.787Z,18.80
2022-10-07T11:49:58.202Z,18.80
2022-10-07T11:52:29.558Z,18.90
2022-10-07T11:55:04.072Z,18.80
2022-10-07T11:57:35.280Z,18.90
2022-10-07T12:00:08.100Z,18.90
2022-10-07T12:02:47.167Z,19.00
2022-10-07T12:06:05.951Z,19.10
2022-10-07T12:08:36.540Z,19.20
2022-10-07T12:11:43.750Z,19.20
2022-10-07T12:14:41.069Z,19.30
2022-10-07T12:17:25.090Z,19.40
2022-10-07T12:20:42.821Z,19.40
2022-10-07T12:23:49.747Z,19.40
2022-10-07T12:26:48.478Z,19.50
2022-10-07T12:29:33.751Z,19.50
2022-10-07T12:32:02.036Z,19.50
2022-10-07T12:34:39.603Z,19.50
2022-10-07T12:37:45.164Z,19.60
2022-10-07T12:40:21.214Z,19.60
2022-10-07T12:42:55.229Z,19.60
2022-10-07T12:45:28.483Z,19.60
2022-10-07T12:47:59.911Z,19.70
2022-10-07T12:50:32.674Z,19.70
2022-10-07T12:53:03.940Z,19.70
2022-10-07T12:55:36.978Z,19.70
2022-10-07T12:58:34.468Z,19.70
2022-10-07T13:01:17.762Z,19.70
2022-10-07T13:04:10.752Z,19.60
2022-10-07T13:07:17.936Z,19.60
2022-10-07T13:10:46.271Z,19.60
2022-10-07T13:13:21.091Z,19.70
2022-10-07T13:15:52.999Z,19.80
2022-10-07T13:18:27.644Z,19.80
2022-10-07T13:21:03.744Z,19.80
2022-10-07T13:23:32.927Z,19.80
2022-10-07T13:26:03.100Z,19.80
2022-10-07T13:28:44.610Z,20.00
2022-10-07T13:31:15.695Z,20.00
2022-10-07T13:33:45.267Z,20.00
2022-10-07T13:36:17.859Z,20.00
2022-10-07T13:38:47.248Z,20.00
2022-10-07T13:41:22.283Z,20.00
2022-10-07T13:43:54.045Z,20.00
2022-10-07T13:46:24.705Z,19.80
2022-10-07T13:48:56.208Z,19.90
2022-10-07T13:51:31.023Z,20.00
2022-10-07T13:54:00.770Z,20.00
2022-10-07T13:56:33.525Z,20.10
2022-10-07T13:59:01.911Z,20.10
2022-10-07T14:01:32.247Z,20.10
2022-10-07T14:04:20.732Z,20.10
2022-10-07T14:06:58.575Z,20.00
2022-10-07T14:09:37.077Z,20.00
2022-10-07T14:12:08.288Z,20.00
2022-10-07T14:14:38.595Z,20.00
2022-10-07T14:17:18.177Z,20.00
2022-10-07T14:19:53.210Z,20.10
2022-10-07T14:22:27.483Z,20.10
2022-10-07T14:24:59.637Z,20.00
2022-10-07T14:27:54.517Z,20.00
2022-10-07T14:30:49.957Z,20.00
2022-10-07T14:33:47.060Z,20.10
2022-10-07T14:36:18.243Z,20.20
2022-10-07T14:38:47.613Z,20.20
2022-10-07T14:41:17.455Z,20.20
2022-10-07T14:43:47.549Z,20.30
2022-10-07T14:46:21.103Z,20.30
2022-10-07T14:48:50.092Z,20.30
2022-10-07T14:51:21.162Z,20.40
2022-10-07T14:53:51.136Z,20.40
2022-10-07T14:56:25.048Z,20.30
2022-10-07T14:58:53.670Z,20.30
2022-10-07T15:01:21.828Z,20.30
2022-10-07T15:03:50.334Z,20.30
2022-10-07T15:06:20.351Z,20.20
2022-10-07T15:08:49.196Z,20.20
2022-10-07T15:11:18.650Z,20.20
2022-10-07T15:13:47.609Z,20.10
2022-10-07T15:16:17.322Z,20.00
2022-10-07T15:18:51.051Z,20.00
2022-10-07T15:21:22.426Z,20.00
2022-10-07T15:23:53.855Z,20.10
2022-10-07T15:26:24.228Z,20.20
2022-10-07T15:28:54.883Z,20.20
2022-10-07T15:31:23.761Z,20.10
2022-10-07T15:33:52.020Z,20.10
2022-10-07T15:36:21.228Z,20.10
2022-10-07T15:38:49.311Z,20.10
2022-10-07T15:41:31.213Z,20.10
2022-10-07T15:43:59.537Z,20.20
2022-10-07T15:46:27.847Z,20.20
2022-10-07T15:48:57.018Z,20.10
2022-10-07T15:51:27.979Z,20.10
2022-10-07T15:53:55.846Z,20.10
2022-10-07T15:56:25.350Z,20.10
2022-10-07T15:58:54.073Z,20.10
2022-10-07T16:01:22.054Z,20.10
2022-10-07T16:03:50.774Z,20.10
2022-10-07T16:06:21.386Z,20.20
2022-10-07T16:08:51.519Z,20.20
2022-10-07T16:11:19.864Z,20.10
2022-10-07T16:13:49.314Z,20.20
2022-10-07T16:16:18.758Z,20.20
2022-10-07T16:18:48.001Z,20.20
2022-10-07T16:21:17.761Z,20.10
2022-10-07T16:23:47.278Z,20.10
2022-10-07T16:26:18.598Z,20.10
2022-10-07T16:29:06.302Z,20.10
2022-10-07T16:31:36.145Z,20.10
2022-10-07T16:34:04.933Z,20.10
2022-10-07T16:36:35.502Z,20.00
2022-10-07T16:39:04.615Z,20.00
2022-10-07T16:41:34.258Z,20.00
2022-10-07T16:44:03.206Z,19.90
2022-10-07T16:46:32.836Z,19.90
2022-10-07T16:49:01.697Z,19.90
2022-10-07T16:51:33.155Z,19.90
2022-10-07T16:54:02.800Z,19.90
2022-10-07T16:56:32.712Z,19.80
2022-10-07T16:59:04.053Z,19.70
2022-10-07T17:01:32.360Z,19.70
2022-10-07T17:04:01.726Z,19.70
2022-10-07T17:06:31.341Z,19.60
2022-10-07T17:09:02.913Z,19.60
2022-10-07T17:11:32.404Z,19.60
2022-10-07T17:14:04.129Z,19.70
2022-10-07T17:16:34.701Z,19.70
2022-10-07T17:19:02.758Z,19.70
2022-10-07T17:21:30.678Z,19.70
2022-10-07T17:23:59.076Z,19.70
2022-10-07T17:26:28.216Z,19.70
2022-10-07T17:29:02.399Z,19.60
2022-10-07T17:31:31.621Z,19.60
2022-10-07T17:33:59.944Z,19.60
2022-10-07T17:36:28.291Z,19.70
2022-10-07T17:38:57.178Z,19.60
2022-10-07T17:41:26.883Z,19.60
2022-10-07T17:43:57.127Z,19.60
2022-10-07T17:46:28.114Z,19.50
2022-10-07T17:48:57.891Z,19.50
2022-10-07T17:51:28.917Z,19.50
2022-10-07T17:53:59.504Z,19.50
2022-10-07T17:56:28.703Z,19.40
2022-10-07T17:58:56.840Z,19.40
2022-10-07T18:01:27.847Z,19.40
2022-10-07T18:03:57.451Z,19.30
2022-10-07T18:06:26.782Z,19.30
2022-10-07T18:08:54.666Z,19.40
2022-10-07T18:11:22.595Z,19.30
2022-10-07T18:14:07.838Z,19.40
2022-10-07T18:16:37.155Z,19.40
2022-10-07T18:19:05.047Z,19.30
2022-10-07T18:21:32.954Z,19.30
2022-10-07T18:24:00.829Z,19.30
2022-10-07T18:26:29.238Z,19.40
2022-10-07T18:28:58.036Z,19.40
2022-10-07T18:31:26.907Z,19.40
2022-10-07T18:33:57.627Z,19.30
2022-10-07T18:36:25.508Z,19.20
2022-10-07T18:38:53.589Z,19.10
2022-10-07T18:41:22.510Z,19.10
2022-10-07T18:43:50.909Z,19.00
2022-10-07T18:46:19.958Z,18.90
2022-10-07T18:48:48.898Z,18.90
2022-10-07T18:51:18.607Z,18.90
2022-10-07T18:53:47.668Z,18.90
2022-10-07T18:56:17.166Z,19.00
2022-10-07T18:58:46.917Z,19.00
2022-10-07T19:01:16.776Z,19.10
2022-10-07T19:03:45.529Z,19.00
2022-10-07T19:06:14.814Z,19.00
2022-10-07T19:08:44.514Z,19.00
2022-10-07T19:11:15.466Z,18.90
2022-10-07T19:13:50.838Z,18.90
2022-10-07T19:16:20.382Z,19.00
2022-10-07T19:18:50.184Z,19.00
2022-10-07T19:21:19.932Z,18.90
2022-10-07T19:23:50.267Z,18.90
2022-10-07T19:26:21.493Z,18.90
2022-10-07T19:28:50.042Z,18.90
2022-10-07T19:31:20.165Z,18.80
2022-10-07T19:33:49.957Z,18.70
2022-10-07T19:36:20.078Z,18.70
2022-10-07T19:38:52.394Z,18.60
2022-10-07T19:41:22.503Z,18.60
2022-10-07T19:43:51.585Z,18.60
2022-10-07T19:46:20.496Z,18.50
2022-10-07T19:48:49.103Z,18.50
2022-10-07T19:51:19.343Z,18.40
2022-10-07T19:53:48.996Z,18.50
2022-10-07T19:56:20.155Z,18.50
2022-10-07T19:58:49.812Z,18.60
2022-10-07T20:01:19.508Z,18.50
2022-10-07T20:03:47.426Z,18.40
2022-10-07T20:06:15.948Z,18.20
2022-10-07T20:08:46.514Z,18.20
2022-10-07T20:11:16.326Z,18.20
2022-10-07T20:13:44.464Z,18.30
2022-10-07T20:16:14.741Z,18.30
2022-10-07T20:18:42.670Z,18.30
2022-10-07T20:21:14.049Z,18.20
2022-10-07T20:23:43.425Z,18.20
2022-10-07T20:26:14.929Z,18.20
2022-10-07T20:28:44.235Z,18.30
2022-10-07T20:31:13.992Z,18.20
2022-10-07T20:33:43.469Z,18.20
2022-10-07T20:36:13.247Z,18.10
2022-10-07T20:38:58.735Z,18.00
2022-10-07T20:41:45.202Z,17.90
2022-10-07T20:44:15.956Z,17.90
2022-10-07T20:46:44.029Z,17.80
2022-10-07T20:49:22.209Z,17.70
2022-10-07T20:51:50.210Z,17.70
2022-10-07T20:54:18.512Z,17.50
2022-10-07T20:56:46.832Z,17.40
2022-10-07T20:59:16.355Z,17.40
2022-10-07T21:01:44.786Z,17.30
2022-10-07T21:04:15.043Z,17.10
2022-10-07T21:06:43.304Z,17.20
2022-10-07T21:09:12.078Z,17.20
2022-10-07T21:11:39.915Z,17.30
2022-10-07T21:14:07.882Z,17.20
2022-10-07T21:16:37.129Z,17.30
2022-10-07T21:19:05.190Z,17.30
2022-10-07T21:21:33.073Z,17.40
2022-10-07T21:24:00.939Z,17.50
2022-10-07T21:26:28.780Z,17.80
2022-10-07T21:28:56.667Z,17.90
2022-10-07T21:31:25.397Z,18.10
2022-10-07T21:33:54.651Z,18.20
2022-10-07T21:36:24.924Z,18.40
2022-10-07T21:38:58.198Z,18.50
2022-10-07T21:41:30.915Z,18.60
2022-10-07T21:43:59.263Z,18.60
2022-10-07T21:46:28.837Z,18.80
2022-10-07T21:48:59.142Z,18.90
2022-10-07T21:51:29.409Z,18.80
2022-10-07T21:53:58.981Z,18.90
2022-10-07T21:56:28.375Z,18.70
2022-10-07T21:58:57.786Z,18.70
2022-10-07T22:01:26.680Z,18.50
2022-10-07T22:03:55.703Z,18.40
2022-10-07T22:06:39.812Z,18.30
2022-10-07T22:09:07.689Z,18.30
2022-10-07T22:11:35.550Z,18.20
2022-10-07T22:14:03.491Z,18.20
2022-10-07T22:16:31.436Z,17.90
2022-10-07T22:18:59.454Z,17.80
2022-10-07T22:21:30.326Z,17.60
2022-10-07T22:24:00.005Z,17.50
2022-10-07T22:26:29.854Z,17.50
2022-10-07T22:28:58.082Z,17.60
2022-10-07T22:31:26.332Z,17.60
2022-10-07T22:33:55.924Z,17.50
2022-10-07T22:36:23.975Z,17.40
2022-10-07T22:38:55.200Z,17.10
2022-10-07T22:41:23.539Z,17.10
2022-10-07T22:43:52.242Z,16.90
2022-10-07T22:46:24.214Z,16.70
2022-10-07T22:48:53.175Z,16.50
2022-10-07T22:51:22.482Z,16.60
2022-10-07T22:53:54.811Z,16.60
2022-10-07T22:56:24.107Z,16.60
2022-10-07T22:58:53.817Z,16.70
2022-10-07T23:01:23.534Z,16.80
2022-10-07T23:03:54.594Z,17.00
2022-10-07T23:06:22.867Z,17.10
2022-10-07T23:08:50.763Z,17.20
2022-10-07T23:11:22.150Z,17.30
2022-10-07T23:13:50.931Z,17.20
2022-10-07T23:16:22.086Z,17.30
2022-10-07T23:18:52.694Z,17.30
2022-10-07T23:21:22.303Z,17.60
2022-10-07T23:23:52.806Z,17.70
2022-10-07T23:26:24.045Z,17.60
2022-10-07T23:28:53.188Z,17.60
2022-10-07T23:31:23.707Z,17.40
2022-10-07T23:33:52.784Z,17.60
2022-10-07T23:36:22.301Z,17.60
2022-10-07T23:38:51.218Z,17.60
2022-10-07T23:41:21.702Z,17.70
2022-10-07T23:43:50.450Z,17.70
2022-10-07T23:46:19.801Z,17.70
2022-10-07T23:48:48.046Z,17.90
2022-10-07T23:51:17.922Z,17.90
2022-10-07T23:53:47.298Z,17.80
2022-10-07T23:56:15.943Z,17.80
2022-10-07T23:58:45.238Z,17.70
